sensor_id;sensor_type;location;lat;lon;timestamp;pressure;altitude;pressure_sealevel;temperature;humidity
76762;BME280;65705;51.032;13.790;2023-08-08T00:01:17;100131.69;;;15.11;70.62
76762;BME280;65705;51.032;13.790;2023-08-08T00:03:42;100133.28;;;15.06;70.75
76762;BME280;65705;51.032;13.790;2023-08-08T00:06:08;100139.38;;;15.06;70.93
76762;BME280;65705;51.032;13.790;2023-08-08T00:08:34;100124.06;;;15.02;70.40
76762;BME280;65705;51.032;13.790;2023-08-08T00:10:59;100130.34;;;15.01;69.98
76762;BME280;65705;51.032;13.790;2023-08-08T00:13:25;100128.97;;;15.05;69.50
76762;BME280;65705;51.032;13.790;2023-08-08T00:15:51;100130.75;;;14.98;70.22
76762;BME280;65705;51.032;13.790;2023-08-08T00:18:17;100131.31;;;14.93;69.23
76762;BME280;65705;51.032;13.790;2023-08-08T00:20:42;100121.53;;;14.94;69.47
76762;BME280;65705;51.032;13.790;2023-08-08T00:23:08;100128.03;;;14.91;69.78
76762;BME280;65705;51.032;13.790;2023-08-08T00:25:34;100126.38;;;14.90;69.70
76762;BME280;65705;51.032;13.790;2023-08-08T00:27:59;100123.97;;;14.95;68.59
76762;BME280;65705;51.032;13.790;2023-08-08T00:30:25;100119.72;;;14.94;69.21
76762;BME280;65705;51.032;13.790;2023-08-08T00:32:51;100112.22;;;14.98;68.58
76762;BME280;65705;51.032;13.790;2023-08-08T00:35:18;100112.81;;;14.93;68.45
76762;BME280;65705;51.032;13.790;2023-08-08T00:37:44;100116.06;;;14.95;68.32
76762;BME280;65705;51.032;13.790;2023-08-08T00:40:10;100111.97;;;14.93;68.23
76762;BME280;65705;51.032;13.790;2023-08-08T00:42:36;100112.16;;;14.91;68.57
76762;BME280;65705;51.032;13.790;2023-08-08T00:45:02;100115.53;;;14.85;68.49
76762;BME280;65705;51.032;13.790;2023-08-08T00:47:31;100109.00;;;14.81;69.05
76762;BME280;65705;51.032;13.790;2023-08-08T00:49:58;100120.00;;;14.85;69.28
76762;BME280;65705;51.032;13.790;2023-08-08T00:52:24;100117.81;;;14.88;68.69
76762;BME280;65705;51.032;13.790;2023-08-08T00:54:51;100118.63;;;14.89;69.39
76762;BME280;65705;51.032;13.790;2023-08-08T00:57:20;100124.31;;;14.86;69.04
76762;BME280;65705;51.032;13.790;2023-08-08T00:59:46;100116.38;;;14.86;69.00
76762;BME280;65705;51.032;13.790;2023-08-08T01:02:14;100116.44;;;14.92;68.40
76762;BME280;65705;51.032;13.790;2023-08-08T01:04:40;100116.63;;;14.91;68.56
76762;BME280;65705;51.032;13.790;2023-08-08T01:07:19;100123.72;;;14.90;68.26
76762;BME280;65705;51.032;13.790;2023-08-08T01:09:50;100111.78;;;14.94;68.13
76762;BME280;65705;51.032;13.790;2023-08-08T01:12:18;100120.09;;;14.91;68.04
76762;BME280;65705;51.032;13.790;2023-08-08T01:14:45;100111.34;;;14.91;67.54
76762;BME280;65705;51.032;13.790;2023-08-08T01:17:12;100104.59;;;14.88;68.05
76762;BME280;65705;51.032;13.790;2023-08-08T01:19:38;100099.50;;;14.87;68.44
76762;BME280;65705;51.032;13.790;2023-08-08T01:22:06;100097.50;;;14.89;67.89
76762;BME280;65705;51.032;13.790;2023-08-08T01:24:35;100098.31;;;14.89;68.10
76762;BME280;65705;51.032;13.790;2023-08-08T01:27:04;100099.06;;;14.83;67.83
76762;BME280;65705;51.032;13.790;2023-08-08T01:29:31;100101.31;;;14.86;68.10
76762;BME280;65705;51.032;13.790;2023-08-08T01:31:56;100110.25;;;14.85;68.08
76762;BME280;65705;51.032;13.790;2023-08-08T01:34:22;100098.97;;;14.91;67.96
76762;BME280;65705;51.032;13.790;2023-08-08T01:36:55;100101.16;;;14.88;68.63
76762;BME280;65705;51.032;13.790;2023-08-08T01:39:25;100096.41;;;14.83;68.71
76762;BME280;65705;51.032;13.790;2023-08-08T01:41:54;100101.69;;;14.83;68.69
76762;BME280;65705;51.032;13.790;2023-08-08T01:44:20;100096.59;;;14.82;68.82
76762;BME280;65705;51.032;13.790;2023-08-08T01:46:48;100102.91;;;14.81;68.90
76762;BME280;65705;51.032;13.790;2023-08-08T01:49:14;100105.34;;;14.82;68.80
76762;BME280;65705;51.032;13.790;2023-08-08T01:51:40;100100.06;;;14.82;67.75
76762;BME280;65705;51.032;13.790;2023-08-08T01:54:07;100104.53;;;14.82;67.42
76762;BME280;65705;51.032;13.790;2023-08-08T01:56:33;100100.44;;;14.79;67.94
76762;BME280;65705;51.032;13.790;2023-08-08T01:59:00;100104.09;;;14.78;67.57
76762;BME280;65705;51.032;13.790;2023-08-08T02:01:26;100106.09;;;14.76;67.68
76762;BME280;65705;51.032;13.790;2023-08-08T02:03:51;100112.56;;;14.73;67.93
76762;BME280;65705;51.032;13.790;2023-08-08T02:06:17;100105.25;;;14.75;67.49
76762;BME280;65705;51.032;13.790;2023-08-08T02:08:43;100106.81;;;14.70;67.54
76762;BME280;65705;51.032;13.790;2023-08-08T02:11:08;100112.41;;;14.75;67.20
76762;BME280;65705;51.032;13.790;2023-08-08T02:13:34;100101.84;;;14.60;67.56
76762;BME280;65705;51.032;13.790;2023-08-08T02:16:00;100110.41;;;14.62;67.01
76762;BME280;65705;51.032;13.790;2023-08-08T02:18:25;100104.22;;;14.55;67.52
76762;BME280;65705;51.032;13.790;2023-08-08T02:20:51;100105.03;;;14.56;67.93
76762;BME280;65705;51.032;13.790;2023-08-08T02:23:17;100096.91;;;14.57;67.69
76762;BME280;65705;51.032;13.790;2023-08-08T02:25:44;100101.84;;;14.60;67.06
76762;BME280;65705;51.032;13.790;2023-08-08T02:28:09;100104.22;;;14.55;66.99
76762;BME280;65705;51.032;13.790;2023-08-08T02:30:35;100098.84;;;14.49;67.59
76762;BME280;65705;51.032;13.790;2023-08-08T02:33:01;100098.03;;;14.48;67.67
76762;BME280;65705;51.032;13.790;2023-08-08T02:35:27;100096.19;;;14.49;67.85
76762;BME280;65705;51.032;13.790;2023-08-08T02:37:53;100096.66;;;14.52;67.06
76762;BME280;65705;51.032;13.790;2023-08-08T02:40:19;100097.88;;;14.50;67.29
76762;BME280;65705;51.032;13.790;2023-08-08T02:42:44;100099.22;;;14.46;66.83
76762;BME280;65705;51.032;13.790;2023-08-08T02:45:10;100093.38;;;14.36;67.42
76762;BME280;65705;51.032;13.790;2023-08-08T02:47:36;100094.66;;;14.40;67.46
76762;BME280;65705;51.032;13.790;2023-08-08T02:50:02;100090.94;;;14.34;66.97
76762;BME280;65705;51.032;13.790;2023-08-08T02:52:27;100091.75;;;14.35;67.50
76762;BME280;65705;51.032;13.790;2023-08-08T02:54:53;100092.22;;;14.38;67.03
76762;BME280;65705;51.032;13.790;2023-08-08T02:57:19;100099.50;;;14.36;67.71
76762;BME280;65705;51.032;13.790;2023-08-08T02:59:45;100096.78;;;14.30;67.57
76762;BME280;65705;51.032;13.790;2023-08-08T03:02:11;100104.25;;;14.26;67.36
76762;BME280;65705;51.032;13.790;2023-08-08T03:04:38;100098.28;;;14.24;67.40
76762;BME280;65705;51.032;13.790;2023-08-08T03:07:06;100113.13;;;14.25;67.28
76762;BME280;65705;51.032;13.790;2023-08-08T03:09:34;100109.38;;;14.20;67.41
76762;BME280;65705;51.032;13.790;2023-08-08T03:12:00;100108.78;;;14.18;67.68
76762;BME280;65705;51.032;13.790;2023-08-08T03:14:27;100104.66;;;14.15;67.63
76762;BME280;65705;51.032;13.790;2023-08-08T03:16:52;100100.41;;;14.14;67.87
76762;BME280;65705;51.032;13.790;2023-08-08T03:19:18;100100.41;;;14.14;67.90
76762;BME280;65705;51.032;13.790;2023-08-08T03:21:44;100102.84;;;14.16;67.78
76762;BME280;65705;51.032;13.790;2023-08-08T03:24:10;100099.00;;;14.18;68.06
76762;BME280;65705;51.032;13.790;2023-08-08T03:26:36;100100.03;;;14.17;67.85
76762;BME280;65705;51.032;13.790;2023-08-08T03:29:02;100090.09;;;14.19;67.86
76762;BME280;65705;51.032;13.790;2023-08-08T03:31:37;100091.47;;;14.15;67.53
76762;BME280;65705;51.032;13.790;2023-08-08T03:34:04;100091.09;;;14.18;67.32
76762;BME280;65705;51.032;13.790;2023-08-08T03:36:31;100091.72;;;14.20;66.66
76762;BME280;65705;51.032;13.790;2023-08-08T03:38:57;100092.63;;;14.13;66.97
76762;BME280;65705;51.032;13.790;2023-08-08T03:41:23;100086.09;;;14.09;67.38
76762;BME280;65705;51.032;13.790;2023-08-08T03:43:49;100083.47;;;14.09;67.08
76762;BME280;65705;51.032;13.790;2023-08-08T03:46:14;100089.00;;;14.14;66.92
76762;BME280;65705;51.032;13.790;2023-08-08T03:48:41;100097.66;;;14.08;67.33
76762;BME280;65705;51.032;13.790;2023-08-08T03:51:06;100089.84;;;14.00;67.67
76762;BME280;65705;51.032;13.790;2023-08-08T03:53:33;100092.28;;;14.01;67.94
76762;BME280;65705;51.032;13.790;2023-08-08T03:55:58;100087.72;;;14.10;67.53
76762;BME280;65705;51.032;13.790;2023-08-08T03:58:25;100087.28;;;14.06;68.04
76762;BME280;65705;51.032;13.790;2023-08-08T04:00:50;100085.09;;;14.10;67.49
76762;BME280;65705;51.032;13.790;2023-08-08T04:03:16;100090.00;;;14.13;67.88
76762;BME280;65705;51.032;13.790;2023-08-08T04:05:46;100091.28;;;14.17;67.59
76762;BME280;65705;51.032;13.790;2023-08-08T04:08:16;100091.88;;;14.27;67.07
76762;BME280;65705;51.032;13.790;2023-08-08T04:10:42;100081.91;;;14.29;67.15
76762;BME280;65705;51.032;13.790;2023-08-08T04:13:09;100088.84;;;14.30;67.44
76762;BME280;65705;51.032;13.790;2023-08-08T04:15:36;100090.59;;;14.37;67.40
76762;BME280;65705;51.032;13.790;2023-08-08T04:18:01;100090.22;;;14.40;67.12
76762;BME280;65705;51.032;13.790;2023-08-08T04:20:27;100075.06;;;14.49;67.20
76762;BME280;65705;51.032;13.790;2023-08-08T04:22:53;100076.16;;;14.54;66.86
76762;BME280;65705;51.032;13.790;2023-08-08T04:25:18;100075.44;;;14.60;66.50
76762;BME280;65705;51.032;13.790;2023-08-08T04:27:46;100074.66;;;14.66;66.37
76762;BME280;65705;51.032;13.790;2023-08-08T04:30:12;100069.09;;;14.76;65.71
76762;BME280;65705;51.032;13.790;2023-08-08T04:32:38;100062.25;;;14.82;65.37
76762;BME280;65705;51.032;13.790;2023-08-08T04:35:04;100069.34;;;14.81;65.52
76762;BME280;65705;51.032;13.790;2023-08-08T04:37:30;100065.16;;;14.87;65.17
76762;BME280;65705;51.032;13.790;2023-08-08T04:39:55;100062.75;;;14.92;65.48
76762;BME280;65705;51.032;13.790;2023-08-08T04:42:21;100065.84;;;14.95;65.51
76762;BME280;65705;51.032;13.790;2023-08-08T04:44:47;100073.41;;;14.98;65.18
76762;BME280;65705;51.032;13.790;2023-08-08T04:47:12;100086.00;;;14.96;64.93
76762;BME280;65705;51.032;13.790;2023-08-08T04:49:38;100092.09;;;14.97;64.90
76762;BME280;65705;51.032;13.790;2023-08-08T04:52:04;100083.09;;;14.91;65.41
76762;BME280;65705;51.032;13.790;2023-08-08T04:54:30;100085.75;;;14.91;65.31
76762;BME280;65705;51.032;13.790;2023-08-08T04:56:56;100099.75;;;14.92;65.73
76762;BME280;65705;51.032;13.790;2023-08-08T04:59:22;100103.22;;;14.92;65.41
76762;BME280;65705;51.032;13.790;2023-08-08T05:01:47;100102.41;;;14.92;65.70
76762;BME280;65705;51.032;13.790;2023-08-08T05:04:13;100105.31;;;14.97;64.91
76762;BME280;65705;51.032;13.790;2023-08-08T05:06:39;100100.03;;;14.97;65.02
76762;BME280;65705;51.032;13.790;2023-08-08T05:09:05;100104.13;;;14.99;64.83
76762;BME280;65705;51.032;13.790;2023-08-08T05:11:30;100092.09;;;14.97;65.10
76762;BME280;65705;51.032;13.790;2023-08-08T05:13:56;100089.63;;;14.95;65.09
76762;BME280;65705;51.032;13.790;2023-08-08T05:16:22;100088.50;;;15.04;65.05
76762;BME280;65705;51.032;13.790;2023-08-08T05:18:50;100092.41;;;15.08;64.92
76762;BME280;65705;51.032;13.790;2023-08-08T05:21:15;100088.41;;;15.12;64.65
76762;BME280;65705;51.032;13.790;2023-08-08T05:23:41;100091.34;;;15.24;64.31
76762;BME280;65705;51.032;13.790;2023-08-08T05:26:07;100081.38;;;15.40;63.51
76762;BME280;65705;51.032;13.790;2023-08-08T05:28:33;100090.59;;;15.51;63.04
76762;BME280;65705;51.032;13.790;2023-08-08T05:30:58;100089.34;;;15.68;63.25
76762;BME280;65705;51.032;13.790;2023-08-08T05:33:24;100088.38;;;15.75;62.82
76762;BME280;65705;51.032;13.790;2023-08-08T05:35:50;100091.34;;;15.94;62.64
76762;BME280;65705;51.032;13.790;2023-08-08T05:38:16;100087.72;;;16.01;62.21
76762;BME280;65705;51.032;13.790;2023-08-08T05:40:41;100093.75;;;16.16;61.48
76762;BME280;65705;51.032;13.790;2023-08-08T05:43:07;100094.38;;;16.18;61.30
76762;BME280;65705;51.032;13.790;2023-08-08T05:45:33;100092.78;;;16.24;60.90
76762;BME280;65705;51.032;13.790;2023-08-08T05:47:59;100089.50;;;16.22;61.48
76762;BME280;65705;51.032;13.790;2023-08-08T05:50:28;100096.41;;;16.23;60.78
76762;BME280;65705;51.032;13.790;2023-08-08T05:52:54;100097.00;;;16.18;60.88
76762;BME280;65705;51.032;13.790;2023-08-08T05:55:20;100097.56;;;16.14;61.57
76762;BME280;65705;51.032;13.790;2023-08-08T05:57:46;100110.81;;;16.14;61.72
76762;BME280;65705;51.032;13.790;2023-08-08T06:00:12;100105.72;;;16.12;61.03
76762;BME280;65705;51.032;13.790;2023-08-08T06:02:42;100103.28;;;16.11;61.68
76762;BME280;65705;51.032;13.790;2023-08-08T06:05:08;100100.44;;;16.12;61.68
76762;BME280;65705;51.032;13.790;2023-08-08T06:07:33;100102.84;;;16.07;61.54
76762;BME280;65705;51.032;13.790;2023-08-08T06:10:00;100107.72;;;16.04;61.30
76762;BME280;65705;51.032;13.790;2023-08-08T06:12:26;100107.72;;;16.04;61.86
76762;BME280;65705;51.032;13.790;2023-08-08T06:14:51;100099.53;;;15.99;61.50
76762;BME280;65705;51.032;13.790;2023-08-08T06:17:17;100103.19;;;15.98;61.88
76762;BME280;65705;51.032;13.790;2023-08-08T06:19:43;100105.81;;;15.98;61.74
76762;BME280;65705;51.032;13.790;2023-08-08T06:22:08;100119.69;;;16.00;62.09
76762;BME280;65705;51.032;13.790;2023-08-08T06:24:34;100122.78;;;16.03;62.00
76762;BME280;65705;51.032;13.790;2023-08-08T06:27:00;100113.41;;;16.01;61.25
76762;BME280;65705;51.032;13.790;2023-08-08T06:29:26;100120.31;;;16.02;61.33
76762;BME280;65705;51.032;13.790;2023-08-08T06:31:52;100115.03;;;16.02;62.39
76762;BME280;65705;51.032;13.790;2023-08-08T06:34:18;100113.84;;;16.04;62.09
76762;BME280;65705;51.032;13.790;2023-08-08T06:36:43;100112.41;;;16.08;62.63
76762;BME280;65705;51.032;13.790;2023-08-08T06:39:09;100112.84;;;16.12;61.72
76762;BME280;65705;51.032;13.790;2023-08-08T06:41:36;100116.13;;;16.14;61.44
76762;BME280;65705;51.032;13.790;2023-08-08T06:44:04;100117.97;;;16.13;60.59
76762;BME280;65705;51.032;13.790;2023-08-08T06:46:30;100118.75;;;16.14;60.69
76762;BME280;65705;51.032;13.790;2023-08-08T06:48:56;100117.56;;;16.16;60.29
76762;BME280;65705;51.032;13.790;2023-08-08T06:51:24;100115.13;;;16.15;60.33
76762;BME280;65705;51.032;13.790;2023-08-08T06:53:51;100114.06;;;16.09;60.21
76762;BME280;65705;51.032;13.790;2023-08-08T06:56:17;100111.84;;;16.13;61.29
76762;BME280;65705;51.032;13.790;2023-08-08T06:58:42;100111.44;;;16.16;60.49
76762;BME280;65705;51.032;13.790;2023-08-08T07:01:09;100105.94;;;16.17;60.54
76762;BME280;65705;51.032;13.790;2023-08-08T07:03:35;100105.38;;;16.22;61.16
76762;BME280;65705;51.032;13.790;2023-08-08T07:06:02;100116.59;;;16.24;60.77
76762;BME280;65705;51.032;13.790;2023-08-08T07:08:28;100106.44;;;16.27;60.82
76762;BME280;65705;51.032;13.790;2023-08-08T07:10:56;100107.44;;;16.26;61.47
76762;BME280;65705;51.032;13.790;2023-08-08T07:13:22;100106.44;;;16.27;60.80
76762;BME280;65705;51.032;13.790;2023-08-08T07:15:48;100101.34;;;16.26;60.45
76762;BME280;65705;51.032;13.790;2023-08-08T07:18:15;100090.75;;;16.26;59.87
76762;BME280;65705;51.032;13.790;2023-08-08T07:20:41;100089.50;;;16.28;59.23
76762;BME280;65705;51.032;13.790;2023-08-08T07:23:07;100086.88;;;16.28;58.99
76762;BME280;65705;51.032;13.790;2023-08-08T07:25:34;100065.53;;;16.36;59.46
76762;BME280;65705;51.032;13.790;2023-08-08T07:27:59;100071.03;;;16.41;59.62
76762;BME280;65705;51.032;13.790;2023-08-08T07:30:25;100063.16;;;16.48;59.89
76762;BME280;65705;51.032;13.790;2023-08-08T07:32:51;100067.47;;;16.55;59.74
76762;BME280;65705;51.032;13.790;2023-08-08T07:35:17;100078.50;;;16.65;60.01
76762;BME280;65705;51.032;13.790;2023-08-08T07:37:43;100071.78;;;16.69;60.14
76762;BME280;65705;51.032;13.790;2023-08-08T07:40:16;100078.16;;;16.81;60.39
76762;BME280;65705;51.032;13.790;2023-08-08T07:42:44;100081.25;;;16.98;59.72
76762;BME280;65705;51.032;13.790;2023-08-08T07:45:10;100075.16;;;17.04;59.63
76762;BME280;65705;51.032;13.790;2023-08-08T07:47:35;100083.31;;;17.16;59.74
76762;BME280;65705;51.032;13.790;2023-08-08T07:50:01;100079.25;;;17.20;59.34
76762;BME280;65705;51.032;13.790;2023-08-08T07:52:27;100085.59;;;17.19;59.70
76762;BME280;65705;51.032;13.790;2023-08-08T07:54:53;100096.44;;;17.37;59.42
76762;BME280;65705;51.032;13.790;2023-08-08T07:57:19;100089.28;;;17.44;58.42
76762;BME280;65705;51.032;13.790;2023-08-08T07:59:45;100095.22;;;17.46;58.11
76762;BME280;65705;51.032;13.790;2023-08-08T08:02:10;100104.03;;;17.53;58.16
76762;BME280;65705;51.032;13.790;2023-08-08T08:04:36;100092.59;;;17.52;58.30
76762;BME280;65705;51.032;13.790;2023-08-08T08:07:02;100095.66;;;17.56;58.13
76762;BME280;65705;51.032;13.790;2023-08-08T08:09:28;100101.56;;;17.64;58.28
76762;BME280;65705;51.032;13.790;2023-08-08T08:11:54;100094.03;;;17.74;57.66
76762;BME280;65705;51.032;13.790;2023-08-08T08:14:21;100105.22;;;17.89;57.32
76762;BME280;65705;51.032;13.790;2023-08-08T08:16:47;100107.91;;;17.83;56.88
76762;BME280;65705;51.032;13.790;2023-08-08T08:19:13;100102.38;;;17.71;56.73
76762;BME280;65705;51.032;13.790;2023-08-08T08:21:39;100088.69;;;17.81;56.35
76762;BME280;65705;51.032;13.790;2023-08-08T08:24:05;100093.78;;;17.69;56.40
76762;BME280;65705;51.032;13.790;2023-08-08T08:26:31;100092.78;;;17.70;56.44
76762;BME280;65705;51.032;13.790;2023-08-08T08:28:57;100088.50;;;17.82;57.02
76762;BME280;65705;51.032;13.790;2023-08-08T08:31:23;100097.25;;;17.89;56.25
76762;BME280;65705;51.032;13.790;2023-08-08T08:33:49;100094.41;;;17.98;55.15
76762;BME280;65705;51.032;13.790;2023-08-08T08:36:15;100090.28;;;18.02;55.30
76762;BME280;65705;51.032;13.790;2023-08-08T08:38:41;100073.94;;;18.11;55.42
76762;BME280;65705;51.032;13.790;2023-08-08T08:41:08;100076.38;;;18.13;55.08
76762;BME280;65705;51.032;13.790;2023-08-08T08:43:38;100082.09;;;18.16;53.68
76762;BME280;65705;51.032;13.790;2023-08-08T08:46:03;100068.59;;;18.18;52.47
76762;BME280;65705;51.032;13.790;2023-08-08T08:48:30;100077.38;;;18.18;53.09
76762;BME280;65705;51.032;13.790;2023-08-08T08:50:56;100079.81;;;18.33;52.87
76762;BME280;65705;51.032;13.790;2023-08-08T08:53:23;100083.09;;;18.22;52.24
76762;BME280;65705;51.032;13.790;2023-08-08T08:55:48;100082.31;;;18.15;51.93
76762;BME280;65705;51.032;13.790;2023-08-08T08:58:15;100085.34;;;18.18;52.97
76762;BME280;65705;51.032;13.790;2023-08-08T09:00:46;100086.97;;;18.26;52.78
76762;BME280;65705;51.032;13.790;2023-08-08T09:03:12;100087.03;;;17.93;52.01
76762;BME280;65705;51.032;13.790;2023-08-08T09:05:39;100088.47;;;18.02;53.45
76762;BME280;65705;51.032;13.790;2023-08-08T09:08:07;100086.00;;;18.07;53.13
76762;BME280;65705;51.032;13.790;2023-08-08T09:10:33;100088.25;;;18.04;53.15
76762;BME280;65705;51.032;13.790;2023-08-08T09:13:01;100087.44;;;17.97;53.82
76762;BME280;65705;51.032;13.790;2023-08-08T09:15:33;100098.47;;;18.00;54.23
76762;BME280;65705;51.032;13.790;2023-08-08T09:18:00;100095.22;;;17.92;54.32
76762;BME280;65705;51.032;13.790;2023-08-08T09:20:27;100090.53;;;17.94;55.08
76762;BME280;65705;51.032;13.790;2023-08-08T09:22:56;100104.63;;;17.94;55.19
76762;BME280;65705;51.032;13.790;2023-08-08T09:25:22;100104.81;;;17.92;54.83
76762;BME280;65705;51.032;13.790;2023-08-08T09:27:52;100096.03;;;17.85;55.46
76762;BME280;65705;51.032;13.790;2023-08-08T09:30:21;100098.72;;;17.59;56.47
76762;BME280;65705;51.032;13.790;2023-08-08T09:32:47;100109.94;;;17.61;56.48
76762;BME280;65705;51.032;13.790;2023-08-08T09:35:13;100096.66;;;17.48;57.26
76762;BME280;65705;51.032;13.790;2023-08-08T09:37:38;100106.69;;;17.53;57.53
76762;BME280;65705;51.032;13.790;2023-08-08T09:40:05;100101.38;;;17.53;56.87
76762;BME280;65705;51.032;13.790;2023-08-08T09:42:33;100099.69;;;17.45;56.93
76762;BME280;65705;51.032;13.790;2023-08-08T09:45:00;100096.88;;;17.47;56.41
76762;BME280;65705;51.032;13.790;2023-08-08T09:47:27;100094.59;;;17.44;56.76
76762;BME280;65705;51.032;13.790;2023-08-08T09:49:59;100096.44;;;17.43;57.06
76762;BME280;65705;51.032;13.790;2023-08-08T09:52:27;100096.88;;;17.53;57.63
76762;BME280;65705;51.032;13.790;2023-08-08T09:54:54;100100.75;;;17.57;58.61
76762;BME280;65705;51.032;13.790;2023-08-08T09:57:21;100104.22;;;17.64;56.62
76762;BME280;65705;51.032;13.790;2023-08-08T09:59:48;100102.59;;;17.83;57.27
76762;BME280;65705;51.032;13.790;2023-08-08T10:02:15;100094.00;;;17.87;56.31
76762;BME280;65705;51.032;13.790;2023-08-08T10:04:41;100094.41;;;17.91;55.96
76762;BME280;65705;51.032;13.790;2023-08-08T10:07:08;100089.09;;;17.98;55.82
76762;BME280;65705;51.032;13.790;2023-08-08T10:09:34;100094.63;;;17.96;55.57
76762;BME280;65705;51.032;13.790;2023-08-08T10:12:00;100093.97;;;18.07;54.79
76762;BME280;65705;51.032;13.790;2023-08-08T10:14:30;100091.13;;;18.09;54.75
76762;BME280;65705;51.032;13.790;2023-08-08T10:16:57;100087.63;;;18.15;54.16
76762;BME280;65705;51.032;13.790;2023-08-08T10:19:23;100093.72;;;18.28;53.94
76762;BME280;65705;51.032;13.790;2023-08-08T10:21:56;100097.97;;;18.36;54.11
76762;BME280;65705;51.032;13.790;2023-08-08T10:24:22;100094.31;;;18.43;53.56
76762;BME280;65705;51.032;13.790;2023-08-08T10:26:57;100091.44;;;18.51;53.18
76762;BME280;65705;51.032;13.790;2023-08-08T10:29:26;100093.22;;;18.64;52.30
76762;BME280;65705;51.032;13.790;2023-08-08T10:31:57;100083.59;;;18.63;52.73
76762;BME280;65705;51.032;13.790;2023-08-08T10:34:47;100076.84;;;18.67;51.96
76762;BME280;65705;51.032;13.790;2023-08-08T10:37:15;100080.94;;;18.63;50.62
76762;BME280;65705;51.032;13.790;2023-08-08T10:39:54;100081.09;;;18.74;50.78
76762;BME280;65705;51.032;13.790;2023-08-08T10:42:22;100069.03;;;18.78;51.27
76762;BME280;65705;51.032;13.790;2023-08-08T10:44:52;100068.19;;;18.78;51.10
76762;BME280;65705;51.032;13.790;2023-08-08T10:47:26;100075.72;;;18.87;50.35
76762;BME280;65705;51.032;13.790;2023-08-08T10:50:02;100061.22;;;18.83;51.04
76762;BME280;65705;51.032;13.790;2023-08-08T10:52:29;100063.88;;;18.83;51.18
76762;BME280;65705;51.032;13.790;2023-08-08T10:54:55;100062.00;;;18.84;51.55
76762;BME280;65705;51.032;13.790;2023-08-08T10:57:24;100060.94;;;18.91;50.69
76762;BME280;65705;51.032;13.790;2023-08-08T10:59:50;100063.38;;;18.93;51.39
76762;BME280;65705;51.032;13.790;2023-08-08T11:02:17;100064.19;;;19.00;51.91
76762;BME280;65705;51.032;13.790;2023-08-08T11:04:44;100049.06;;;18.94;49.35
76762;BME280;65705;51.032;13.790;2023-08-08T11:07:10;100051.47;;;19.02;49.08
76762;BME280;65705;51.032;13.790;2023-08-08T11:09:36;100051.28;;;19.04;49.36
76762;BME280;65705;51.032;13.790;2023-08-08T11:12:02;100046.91;;;19.09;49.15
76762;BME280;65705;51.032;13.790;2023-08-08T11:14:28;100043.63;;;19.14;49.10
76762;BME280;65705;51.032;13.790;2023-08-08T11:16:53;100043.78;;;19.19;49.22
76762;BME280;65705;51.032;13.790;2023-08-08T11:19:20;100035.34;;;19.28;48.85
76762;BME280;65705;51.032;13.790;2023-08-08T11:21:46;100038.13;;;19.40;48.30
76762;BME280;65705;51.032;13.790;2023-08-08T11:24:13;100041.00;;;19.38;47.54
76762;BME280;65705;51.032;13.790;2023-08-08T11:26:41;100022.53;;;19.43;47.18
76762;BME280;65705;51.032;13.790;2023-08-08T11:29:07;100029.72;;;19.43;47.52
76762;BME280;65705;51.032;13.790;2023-08-08T11:31:37;100028.81;;;19.49;47.19
76762;BME280;65705;51.032;13.790;2023-08-08T11:34:04;100021.03;;;19.54;47.68
76762;BME280;65705;51.032;13.790;2023-08-08T11:36:34;100021.97;;;19.59;48.07
76762;BME280;65705;51.032;13.790;2023-08-08T11:39:03;100023.53;;;19.67;47.64
76762;BME280;65705;51.032;13.790;2023-08-08T11:41:34;100022.38;;;19.81;47.55
76762;BME280;65705;51.032;13.790;2023-08-08T11:44:03;100018.47;;;19.83;47.28
76762;BME280;65705;51.032;13.790;2023-08-08T11:46:29;100007.38;;;19.86;48.04
76762;BME280;65705;51.032;13.790;2023-08-08T11:49:02;100003.22;;;19.90;48.03
76762;BME280;65705;51.032;13.790;2023-08-08T11:51:28;100000.13;;;19.93;48.14
76762;BME280;65705;51.032;13.790;2023-08-08T11:53:54;99999.75;;;20.08;48.70
76762;BME280;65705;51.032;13.790;2023-08-08T11:56:20;99995.13;;;20.22;48.60
76762;BME280;65705;51.032;13.790;2023-08-08T11:58:49;99988.13;;;20.39;46.84
76762;BME280;65705;51.032;13.790;2023-08-08T12:01:15;99992.22;;;20.53;45.59
76762;BME280;65705;51.032;13.790;2023-08-08T12:03:40;99981.28;;;20.72;44.37
76762;BME280;65705;51.032;13.790;2023-08-08T12:06:15;99972.28;;;20.85;44.41
76762;BME280;65705;51.032;13.790;2023-08-08T12:08:42;99965.81;;;20.92;44.16
76762;BME280;65705;51.032;13.790;2023-08-08T12:11:10;99962.03;;;21.00;43.50
76762;BME280;65705;51.032;13.790;2023-08-08T12:13:37;99965.44;;;21.19;43.28
76762;BME280;65705;51.032;13.790;2023-08-08T12:16:09;99960.31;;;21.29;42.82
76762;BME280;65705;51.032;13.790;2023-08-08T12:18:36;99955.78;;;21.29;42.73
76762;BME280;65705;51.032;13.790;2023-08-08T12:21:09;99959.03;;;21.20;42.07
76762;BME280;65705;51.032;13.790;2023-08-08T12:23:36;99954.97;;;21.06;42.55
76762;BME280;65705;51.032;13.790;2023-08-08T12:26:03;99955.44;;;21.03;41.76
76762;BME280;65705;51.032;13.790;2023-08-08T12:28:31;99951.56;;;20.98;42.01
76762;BME280;65705;51.032;13.790;2023-08-08T12:30:56;99953.78;;;21.02;41.99
76762;BME280;65705;51.032;13.790;2023-08-08T12:33:22;99951.16;;;21.13;42.03
76762;BME280;65705;51.032;13.790;2023-08-08T12:35:48;99954.03;;;21.12;42.24
76762;BME280;65705;51.032;13.790;2023-08-08T12:38:14;99953.91;;;21.07;43.07